Pagrindinis puslapis
METAR-TAF:

METAR-TAF

Oro uostai :

Andavajlasas, Peru

platuma: 13-43S, ilguma: 073-21W, Aukštis: 3444 m

Dabartinis oras

Ataskaita buvo paskelbta 13 valandos ir 8 minutes, ne 19:00 UTC
Vėjas 8 kt iš Šiaurės/Šiaurės Rytų
Temperatūra 14°C
Drėgmė 58%
Slėgis 1034 hPa
Matomumas 10 km arba daugiau
Išsisklaidę debesys ne aukštis 1200 ft
Su prošvaistėmis ne aukštis 6000 ft

METAR: SPHY 071900Z 02008KT 9999 SCT012 BKN060 14/06 Q1034 RMK BIRD HAZARD RWY03/21 PP000

Laikas: 03:08 (08:08 UTC)

Prognozė

Ataskaita buvo paskelbta 14 valandos ir 53 minutes, ne 17:15 UTC
Prognozė galioja nuo 07 metu 18 UTC su 08 metu 18 UTC
Vėjas 10 kt iš Šiaurės
Matomumas 10 km arba daugiau
Išsisklaidę debesys ne aukštis 1200 ft
Su prošvaistėmis ne aukštis 6000 ft
Tapsmas
nuo 07 metu 22 UTC su 07 metu 24 UTC
Vėjas kt iš Šiaurės

TAF: SPHY 071715Z 0718/0818 36010KT 9999 SCT012 BKN060 TX16/0719Z TN03/0811Z BECMG 0722/0724 00000KT

Orai ataskaitas ir orų prognozės (METAR, TAF).

turimą stotys yra geltonos ir raudonos taškus žemėlapyje.

Perkelti pele per norėdami pamatyti stoties vardą.

Tada spustelėkite, norėdami matyti oro stebėjimo ir prognozės.

Norėdami pakeisti žemėlapį: spustelėkite ant žalios mygtukų su juodo kryžiaus žemyn,; žalią mygtuką su brūkšneliu, jei norite nutolinti; arba žalių rodyklių gretimoms žemėlapius.


METAR-TAF: